Overview Statistics Trail Chart Weather Telemetry Raw packets
 

This is the latest recevied weather packets stored in our database for station/object KG7FOQ-13. If no packets are shown the sender has not sent any weather packets the latest 10 day(s).

<< 90 91 92 93 94 95 96 >>
Time Temp. Humidity Pressure Rain* Wind** Luminosity Snow
1787933534 20.56° C 65% 1018.2 hPa 0 mm - - -
1787933233 20.56° C 65% 1018.2 hPa 0 mm - - -
1787932932 21.11° C 64% 1018.2 hPa 0 mm - - -
1787932331 21.67° C 57% 1018 hPa 0 mm - - -
1787932030 21.11° C 59% 1018 hPa 0 mm - - -
1787931730 21.11° C 59% 1018.1 hPa 0 mm - - -
1787931429 21.67° C 58% 1017.9 hPa 0 mm - - -
1787931164 22.22° C 58% 1017.8 hPa 0 mm - - -
1787931129 22.22° C 58% 1017.8 hPa 0 mm - - -
1787930828 21.67° C 57% 1017.7 hPa 0 mm - - -
1787930626 22.22° C 51% 1017.8 hPa 0 mm - - -
1787930528 22.22° C 51% 1017.8 hPa 0 mm - - -
1787930307 23.33° C 47% 1017.5 hPa 0 mm - - -
1787930227 23.33° C 47% 1017.5 hPa 0 mm - - -
1787929966 22.22° C 52% 1017.9 hPa 0 mm - - -
1787929927 22.22° C 52% 1017.9 hPa 0 mm - - -
1787929680 22.22° C 50% 1017.8 hPa 0 mm - - -
1787929626 22.22° C 50% 1017.8 hPa 0 mm - - -
1787929326 22.78° C 51% 1017.4 hPa 0 mm - - -
1787929025 22.22° C 52% 1017.1 hPa 0 mm - - -
1787928725 22.22° C 51% 1017 hPa 0 mm - - -
1787928424 22.22° C 52% 1016.7 hPa 0 mm - - -
1787928244 22.22° C 50% 1016.9 hPa 0 mm - - -
1787928124 22.22° C 50% 1016.9 hPa 0 mm - - -
1787927823 22.22° C 51% 1016.9 hPa 0 mm - - -

* Rain latest hour (hover to see other rain measurements)
** Current wind speed in m/s (hover to see current wind gust speed)